Time;durP1;ratioP1;P1;durP2;ratioP2;P2;SDS_P1;SDS_P2;PMS_P1;PMS_P2;Temp;Humidity;BMP_temperature;BMP_pressure;BME280_temperature;BME280_humidity;BME280_pressure;Samples;Min_cycle;Max_cycle;Signal;HPM_P1;HPM_P2
2023/09/03 00:01:46;;;;;;;6.17;3.20;;;;;;;26.36;59.75;99355.56;4791315;29;20190;-84
2023/09/03 00:04:13;;;;;;;5.87;3.20;;;;;;;26.34;60.21;99353.03;4806947;29;20178;-84
2023/09/03 00:06:39;;;;;;;8.67;3.90;;;;;;;26.36;59.87;99361.78;4806721;29;20194;-84
2023/09/03 00:09:06;;;;;;;4.93;2.93;;;;;;;26.36;60.61;99353.72;4807399;29;20692;-84
2023/09/03 00:11:32;;;;;;;11.67;3.20;;;;;;;26.39;60.48;99352.53;4790584;29;20193;-84
2023/09/03 00:13:58;;;;;;;5.70;3.30;;;;;;;26.40;60.53;99352.34;4806938;29;20501;-84
2023/09/03 00:16:23;;;;;;;5.67;2.93;;;;;;;26.40;60.60;99348.81;4806740;29;20493;-85
2023/09/03 00:18:50;;;;;;;5.67;2.87;;;;;;;26.40;60.79;99351.50;4790766;29;20274;-85
2023/09/03 00:21:15;;;;;;;7.60;2.97;;;;;;;26.38;61.03;99349.00;4805692;29;20182;-85
2023/09/03 00:23:41;;;;;;;5.23;3.27;;;;;;;26.35;61.43;99345.81;4806644;29;20196;-85
2023/09/03 00:26:17;;;;;;;6.63;3.10;;;;;;;26.35;61.58;99351.19;4806334;29;20658;-85
2023/09/03 00:28:43;;;;;;;5.83;3.17;;;;;;;26.33;62.12;99355.91;4805895;29;20213;-85
2023/09/03 00:31:10;;;;;;;5.73;3.07;;;;;;;26.30;62.07;99353.56;4806531;29;20595;-85
2023/09/03 00:33:37;;;;;;;6.87;3.10;;;;;;;26.30;62.29;99350.88;4790337;29;20182;-85
2023/09/03 00:36:06;;;;;;;8.23;3.53;;;;;;;26.29;62.11;99350.03;4806676;29;20179;-84
2023/09/03 00:38:32;;;;;;;8.20;3.60;;;;;;;26.28;62.36;99351.06;4806683;29;20175;-84
2023/09/03 00:40:58;;;;;;;5.17;3.23;;;;;;;26.28;62.28;99353.75;4806303;29;20660;-85
2023/09/03 00:43:27;;;;;;;5.00;3.00;;;;;;;26.28;62.37;99359.13;4806319;29;20220;-85
2023/09/03 00:45:54;;;;;;;6.00;3.07;;;;;;;26.26;62.45;99354.94;4805334;29;20277;-85
2023/09/03 00:48:28;;;;;;;4.70;2.73;;;;;;;26.23;62.29;99350.75;4806026;29;20179;-84
2023/09/03 00:50:58;;;;;;;7.20;3.47;;;;;;;26.19;62.14;99347.56;4792206;29;20178;-85
2023/09/03 00:53:27;;;;;;;6.60;2.53;;;;;;;26.18;62.00;99351.25;4806209;29;20206;-85
2023/09/03 00:55:54;;;;;;;5.23;2.33;;;;;;;26.12;62.03;99343.91;4806636;29;20182;-84
2023/09/03 00:58:20;;;;;;;7.37;2.83;;;;;;;26.03;61.49;99344.91;4805056;29;20194;-84
2023/09/03 01:00:47;;;;;;;5.33;2.70;;;;;;;25.88;61.77;99349.34;4806002;29;20182;-84
2023/09/03 01:03:14;;;;;;;5.60;2.50;;;;;;;25.84;61.35;99345.31;4806049;29;20183;-85
2023/09/03 01:05:40;;;;;;;5.50;2.90;;;;;;;25.83;61.28;99350.88;4806565;29;20179;-85
2023/09/03 01:08:06;;;;;;;8.93;2.80;;;;;;;25.78;60.70;99343.34;4790004;29;20277;-85
2023/09/03 01:10:59;;;;;;;5.87;2.70;;;;;;;25.68;61.10;99349.91;4805834;29;20638;-85
2023/09/03 01:13:30;;;;;;;5.83;2.70;;;;;;;25.62;61.04;99344.22;4806208;29;20178;-85
2023/09/03 01:16:02;;;;;;;5.33;2.37;;;;;;;25.58;61.20;99333.97;4806235;29;20171;-85
2023/09/03 01:18:30;;;;;;;6.70;3.17;;;;;;;25.52;61.06;99340.84;4790035;29;20197;-85
2023/09/03 01:21:32;;;;;;;3.97;2.27;;;;;;;25.50;61.13;99339.34;4806175;29;20182;-85
2023/09/03 01:24:21;;;;;;;6.27;2.77;;;;;;;25.42;61.41;99339.34;4805689;29;20182;-85
2023/09/03 01:27:12;;;;;;;6.23;2.70;;;;;;;25.40;61.62;99335.97;4809637;29;20182;-85
2023/09/03 01:29:41;;;;;;;6.80;2.77;;;;;;;25.40;61.53;99330.59;4809765;29;20199;-85
2023/09/03 01:32:09;;;;;;;5.63;2.60;;;;;;;25.35;61.84;99328.44;4809795;29;20186;-85
2023/09/03 01:34:36;;;;;;;6.57;2.77;;;;;;;25.29;62.13;99329.09;4809371;29;20343;-84
2023/09/03 01:37:04;;;;;;;4.83;2.87;;;;;;;25.18;62.95;99331.31;4809443;29;20214;-84
2023/09/03 01:39:31;;;;;;;5.07;2.87;;;;;;;25.12;63.24;99326.63;4793667;29;20195;-85
2023/09/03 01:41:58;;;;;;;5.47;2.77;;;;;;;25.07;63.20;99329.81;4808390;29;20194;-85
2023/09/03 01:44:25;;;;;;;6.60;3.03;;;;;;;24.98;63.91;99337.00;4809400;29;20209;-85
2023/09/03 01:47:00;;;;;;;5.90;3.07;;;;;;;24.88;64.10;99336.34;4809340;29;20179;-85
2023/09/03 01:49:35;;;;;;;4.53;2.73;;;;;;;24.89;63.60;99337.19;4808272;29;20198;-85
2023/09/03 01:52:13;;;;;;;5.27;2.77;;;;;;;24.78;63.20;99338.34;4809398;29;20671;-85
2023/09/03 01:54:41;;;;;;;6.37;2.90;;;;;;;24.77;62.95;99344.66;4808348;29;20641;-85
2023/09/03 01:57:15;;;;;;;6.87;2.73;;;;;;;24.81;62.43;99340.69;4793354;29;20198;-84
2023/09/03 02:00:16;;;;;;;5.70;3.20;;;;;;;24.87;61.79;99339.16;4809197;29;20625;-85
2023/09/03 02:02:44;;;;;;;8.70;3.57;;;;;;;24.88;61.30;99341.69;4804056;29;20207;-84
2023/09/03 02:05:11;;;;;;;5.10;2.60;;;;;;;24.86;61.20;99332.16;4808945;29;20185;-85
2023/09/03 02:07:39;;;;;;;8.57;3.20;;;;;;;24.85;61.32;99339.34;4808962;29;20708;-84
2023/09/03 02:10:06;;;;;;;4.73;3.00;;;;;;;24.84;61.61;99329.59;4808689;29;20334;-85
2023/09/03 02:12:33;;;;;;;5.33;3.23;;;;;;;24.80;61.74;99333.66;4809345;29;20599;-85
2023/09/03 02:14:59;;;;;;;4.60;2.60;;;;;;;24.80;62.44;99333.66;4807896;29;20195;-85
2023/09/03 02:17:26;;;;;;;7.30;3.30;;;;;;;24.83;62.67;99338.69;4809206;29;20247;-85
2023/09/03 02:19:54;;;;;;;6.57;2.93;;;;;;;24.86;63.14;99340.19;4809262;29;20175;-85
2023/09/03 02:22:21;;;;;;;8.13;2.93;;;;;;;24.86;63.28;99340.19;4807527;29;20570;-85
2023/09/03 02:24:50;;;;;;;5.77;3.20;;;;;;;24.74;63.74;99331.59;4808031;29;20191;-85
2023/09/03 02:27:15;;;;;;;5.37;2.97;;;;;;;24.69;63.80;99333.91;4792531;29;20199;-85
2023/09/03 02:29:42;;;;;;;4.60;2.70;;;;;;;24.66;64.04;99336.94;4792565;29;20593;-85
2023/09/03 02:32:09;;;;;;;8.67;3.10;;;;;;;24.61;63.88;99336.59;4792854;29;20331;-84
2023/09/03 02:34:35;;;;;;;6.17;3.40;;;;;;;24.57;63.89;99334.41;4808435;29;20182;-85
2023/09/03 02:37:02;;;;;;;5.13;2.73;;;;;;;24.49;63.67;99334.38;4808077;29;20175;-85
2023/09/03 02:39:28;;;;;;;5.57;3.10;;;;;;;24.42;63.76;99334.22;4808839;29;20171;-85
2023/09/03 02:41:57;;;;;;;5.47;3.03;;;;;;;24.36;64.06;99335.72;4808197;29;20263;-85
2023/09/03 02:44:23;;;;;;;6.73;3.27;;;;;;;24.34;63.82;99337.69;4792345;29;20197;-85
2023/09/03 02:46:50;;;;;;;6.37;3.37;;;;;;;24.33;63.51;99332.50;4808248;29;20183;-84
2023/09/03 02:49:15;;;;;;;5.87;3.00;;;;;;;24.29;63.68;99331.97;4808689;29;20216;-85
2023/09/03 02:51:42;;;;;;;6.10;3.27;;;;;;;24.24;63.83;99325.47;4808109;29;20190;-85
2023/09/03 02:54:09;;;;;;;5.33;2.53;;;;;;;24.18;63.98;99339.50;4808419;29;20186;-85
2023/09/03 02:56:36;;;;;;;7.90;3.70;;;;;;;24.17;63.91;99335.13;4808125;29;20191;-85
2023/09/03 02:59:01;;;;;;;5.70;3.13;;;;;;;24.13;64.14;99337.31;4808057;29;20265;-84
2023/09/03 03:01:27;;;;;;;4.77;2.73;;;;;;;24.10;64.32;99339.47;4792086;29;20673;-84
2023/09/03 03:03:52;;;;;;;5.70;3.10;;;;;;;24.04;64.22;99335.53;4808028;29;20178;-85
2023/09/03 03:06:17;;;;;;;7.20;3.23;;;;;;;23.98;63.85;99335.38;4807027;29;20242;-85
2023/09/03 03:08:43;;;;;;;8.47;3.43;;;;;;;23.90;63.92;99332.66;4792010;29;20238;-84
2023/09/03 03:11:14;;;;;;;7.00;3.60;;;;;;;23.86;63.80;99342.81;4807902;29;20235;-85
2023/09/03 03:13:41;;;;;;;7.70;4.30;;;;;;;23.78;63.34;99335.59;4791905;29;20207;-84
2023/09/03 03:16:11;;;;;;;5.40;3.00;;;;;;;23.77;63.11;99339.25;4807840;29;20190;-85
2023/09/03 03:18:38;;;;;;;9.37;3.60;;;;;;;23.82;62.98;99330.75;4807565;29;20239;-84
2023/09/03 03:21:10;;;;;;;7.57;3.77;;;;;;;23.84;62.81;99326.94;4807681;29;20710;-85
2023/09/03 03:23:38;;;;;;;6.73;3.10;;;;;;;23.85;62.25;99325.91;4807989;29;20171;-85
2023/09/03 03:26:05;;;;;;;7.00;3.37;;;;;;;23.89;62.58;99330.97;4807616;29;20187;-85
2023/09/03 03:28:35;;;;;;;5.93;3.43;;;;;;;23.90;64.63;99325.44;4807585;29;20203;-85
2023/09/03 03:31:17;;;;;;;8.40;3.33;;;;;;;23.96;66.24;99327.47;4807692;29;20714;-85
2023/09/03 03:33:45;;;;;;;6.70;3.60;;;;;;;24.02;67.83;99331.34;4807485;29;20171;-84
2023/09/03 03:36:19;;;;;;;8.07;4.10;;;;;;;24.06;68.58;99330.00;4807383;29;20273;-85
2023/09/03 03:38:46;;;;;;;7.93;4.10;;;;;;;24.15;68.65;99332.63;4808237;29;20542;-84
2023/09/03 03:41:16;;;;;;;5.77;3.10;;;;;;;24.12;69.80;99335.63;4807648;29;20188;-85
2023/09/03 03:43:43;;;;;;;7.67;3.67;;;;;;;24.15;69.80;99339.81;4807332;29;20221;-85
2023/09/03 03:46:13;;;;;;;5.23;2.57;;;;;;;24.09;69.31;99343.13;4791459;29;20182;-85
2023/09/03 03:48:41;;;;;;;9.43;3.60;;;;;;;24.13;68.86;99341.81;4805477;29;20673;-85
2023/09/03 03:51:08;;;;;;;7.47;3.60;;;;;;;24.15;67.96;99335.28;4807179;29;20179;-85
2023/09/03 03:53:34;;;;;;;7.17;3.13;;;;;;;24.17;67.48;99335.13;4807175;29;20700;-85
2023/09/03 03:56:05;;;;;;;8.83;3.03;;;;;;;24.15;66.82;99343.34;4807329;29;20265;-84
2023/09/03 03:58:38;;;;;;;6.93;3.77;;;;;;;24.01;67.28;99340.38;4807639;29;20174;-85
2023/09/03 04:01:19;;;;;;;5.13;2.93;;;;;;;24.06;67.28;99336.22;4806906;29;20309;-86
2023/09/03 04:03:47;;;;;;;6.47;3.60;;;;;;;24.02;67.42;99332.19;4805884;29;20209;-85
2023/09/03 04:06:14;;;;;;;7.20;3.07;;;;;;;24.13;66.89;99339.13;4805987;29;20194;-84
2023/09/03 04:08:43;;;;;;;5.97;3.10;;;;;;;24.17;66.81;99332.44;4807013;29;20206;-86
2023/09/03 04:11:13;;;;;;;7.97;3.17;;;;;;;24.13;67.02;99337.31;4806843;29;20171;-85
2023/09/03 04:13:40;;;;;;;7.20;3.17;;;;;;;24.18;66.81;99332.31;4806808;29;20186;-85
2023/09/03 04:16:14;;;;;;;6.40;2.73;;;;;;;24.22;66.71;99332.78;4807012;29;20237;-85
2023/09/03 04:18:40;;;;;;;7.00;2.93;;;;;;;24.21;66.84;99321.22;4807013;29;20163;-85
2023/09/03 04:21:07;;;;;;;5.23;3.23;;;;;;;24.26;66.93;99331.50;4806731;29;20183;-84
2023/09/03 04:23:34;;;;;;;4.93;2.90;;;;;;;24.23;66.64;99329.13;4806918;29;20251;-84
2023/09/03 04:26:00;;;;;;;6.73;3.77;;;;;;;24.17;67.00;99327.09;4806487;29;20242;-84
2023/09/03 04:28:27;;;;;;;5.47;3.37;;;;;;;24.17;66.50;99329.75;4806474;29;20179;-84
2023/09/03 04:30:59;;;;;;;4.67;3.20;;;;;;;24.23;64.99;99329.13;4806452;29;20210;-85
2023/09/03 04:33:25;;;;;;;10.07;3.63;;;;;;;24.20;64.91;99329.44;4806501;29;20231;-86
2023/09/03 04:35:57;;;;;;;6.33;3.10;;;;;;;24.12;65.66;99327.59;4806395;29;20269;-86
2023/09/03 04:38:24;;;;;;;7.40;3.23;;;;;;;24.23;65.02;99324.63;4806731;29;20255;-84
2023/09/03 04:40:51;;;;;;;6.87;3.07;;;;;;;24.39;63.92;99326.50;4806305;29;20282;-84
2023/09/03 04:43:18;;;;;;;6.43;3.13;;;;;;;24.44;63.51;99326.84;4806493;29;20178;-86
2023/09/03 04:45:49;;;;;;;9.33;3.67;;;;;;;24.46;62.93;99324.84;4807093;29;20178;-85
2023/09/03 04:48:20;;;;;;;7.57;3.00;;;;;;;24.61;61.85;99316.97;4806109;29;20195;-87
2023/09/03 04:50:47;;;;;;;5.33;3.07;;;;;;;24.82;60.95;99320.91;4805294;29;20183;-86
2023/09/03 04:53:14;;;;;;;5.20;3.17;;;;;;;24.94;60.79;99324.94;4806504;29;20214;-86
2023/09/03 04:55:41;;;;;;;6.93;2.97;;;;;;;24.97;61.09;99319.22;4806311;29;20190;-86
2023/09/03 04:58:08;;;;;;;9.30;3.50;;;;;;;24.95;61.76;99318.56;4802016;29;20231;-85
2023/09/03 05:00:34;;;;;;;5.00;3.17;;;;;;;25.05;61.93;99310.38;4787028;30;20242;-85
2023/09/03 05:03:01;;;;;;;8.63;3.40;;;;;;;25.04;61.50;99311.38;4788511;30;20191;-85
2023/09/03 05:05:26;;;;;;;6.20;3.03;;;;;;;25.20;61.22;99311.34;4772236;30;20559;-87
2023/09/03 05:07:52;;;;;;;5.97;2.83;;;;;;;25.34;60.75;99310.66;4772212;30;20252;-85
2023/09/03 05:10:17;;;;;;;5.70;2.93;;;;;;;25.45;60.47;99302.25;4788004;30;20199;-85
2023/09/03 05:12:43;;;;;;;6.13;3.00;;;;;;;25.51;60.01;99296.25;4788064;30;20187;-84
2023/09/03 05:15:11;;;;;;;5.47;3.50;;;;;;;25.55;60.27;99302.13;4787973;30;20611;-86
2023/09/03 05:17:38;;;;;;;4.93;3.20;;;;;;;25.59;60.43;99304.28;4772158;30;20230;-85
2023/09/03 05:20:04;;;;;;;6.30;3.27;;;;;;;25.76;59.92;99299.69;4787970;30;20183;-87
2023/09/03 05:22:29;;;;;;;5.07;2.97;;;;;;;25.72;60.52;99301.03;4788780;30;20248;-86
2023/09/03 05:24:55;;;;;;;10.57;3.33;;;;;;;25.91;59.27;99295.28;4802007;29;20618;-85
2023/09/03 05:27:20;;;;;;;6.20;3.00;;;;;;;26.17;58.89;99298.56;4772105;30;20255;-85
2023/09/03 05:29:46;;;;;;;7.13;2.40;;;;;;;26.37;57.99;99303.47;4786889;30;20211;-85
2023/09/03 05:32:11;;;;;;;6.63;3.30;;;;;;;26.53;56.65;99284.56;4786949;30;20194;-86
2023/09/03 05:34:37;;;;;;;4.73;2.77;;;;;;;26.58;56.36;99290.22;4801869;29;20206;-85
2023/09/03 05:37:03;;;;;;;7.33;3.03;;;;;;;26.68;55.84;99290.81;4787171;30;20238;-86
2023/09/03 05:39:28;;;;;;;8.53;3.60;;;;;;;26.80;55.57;99290.28;4788115;30;20642;-86
2023/09/03 05:41:54;;;;;;;7.43;2.93;;;;;;;26.92;55.27;99284.44;4788075;30;20247;-86
2023/09/03 05:44:21;;;;;;;5.63;2.90;;;;;;;26.88;54.57;99291.22;4796005;29;20195;-85
2023/09/03 05:46:48;;;;;;;6.47;3.00;;;;;;;26.91;54.22;99280.94;4805755;29;20185;-86
2023/09/03 05:49:14;;;;;;;6.13;2.80;;;;;;;26.81;54.44;99285.72;4805759;29;20725;-86
2023/09/03 05:51:41;;;;;;;6.10;2.70;;;;;;;26.78;54.59;99286.09;4789943;29;20220;-86
2023/09/03 05:54:08;;;;;;;6.00;2.83;;;;;;;27.08;54.30;99287.84;4805909;29;20265;-85
2023/09/03 05:56:38;;;;;;;4.57;2.73;;;;;;;27.44;53.09;99286.19;4804674;29;20235;-85
2023/09/03 05:59:08;;;;;;;4.53;2.70;;;;;;;27.87;51.91;99289.06;4805740;29;20166;-85
2023/09/03 06:01:36;;;;;;;7.10;2.67;;;;;;;28.18;50.78;99289.72;4789583;29;20253;-85
2023/09/03 06:04:04;;;;;;;4.73;2.80;;;;;;;28.40;49.45;99288.72;4805414;29;20241;-85
2023/09/03 06:06:40;;;;;;;4.90;2.87;;;;;;;28.58;49.18;99289.13;4805504;29;20190;-86
2023/09/03 06:09:07;;;;;;;11.50;3.37;;;;;;;28.76;48.53;99291.41;4805731;29;20684;-85
2023/09/03 06:11:33;;;;;;;4.63;2.42;;;;;;;28.92;47.47;99306.50;4808244;29;20197;-85
2023/09/03 06:14:00;;;;;;;5.63;3.10;;;;;;;29.14;46.76;99305.47;4808687;29;20191;-86
2023/09/03 06:16:26;;;;;;;4.28;2.38;;;;;;;29.24;47.02;99306.00;4807852;29;20198;-85
2023/09/03 06:18:53;;;;;;;5.53;2.57;;;;;;;29.24;47.14;99304.13;4808836;29;20181;-85
2023/09/03 06:21:18;;;;;;;5.55;2.90;;;;;;;29.75;46.58;99307.41;4809029;29;20217;-85
2023/09/03 06:23:45;;;;;;;6.88;2.55;;;;;;;30.17;45.09;99308.25;4808533;29;20210;-85
2023/09/03 06:26:11;;;;;;;6.47;3.10;;;;;;;30.60;44.16;99296.16;4792771;29;20261;-85
2023/09/03 06:28:37;;;;;;;4.90;2.78;;;;;;;30.90;42.81;99310.16;4808794;29;20700;-85
2023/09/03 06:31:03;;;;;;;4.10;2.67;;;;;;;31.25;42.51;99308.13;4809099;29;20277;-85
2023/09/03 06:33:28;;;;;;;5.32;2.88;;;;;;;31.60;41.39;99306.88;4807390;29;20269;-86
2023/09/03 06:35:54;;;;;;;4.47;2.47;;;;;;;31.80;41.06;99304.13;4798341;29;20199;-85
2023/09/03 06:38:21;;;;;;;4.95;2.38;;;;;;;31.84;40.65;99303.47;4798738;29;20186;-86
2023/09/03 06:40:48;;;;;;;3.33;2.15;;;;;;;31.90;40.00;99312.63;4774733;29;20218;-87
2023/09/03 06:43:13;;;;;;;5.03;2.22;;;;;;;31.88;40.16;99306.59;4796071;29;20219;-87
2023/09/03 06:45:38;;;;;;;4.60;2.60;;;;;;;32.13;40.02;99305.72;4783005;29;20338;-85
2023/09/03 06:48:04;;;;;;;4.03;2.38;;;;;;;32.15;39.63;99303.59;4797765;29;20199;-86
2023/09/03 06:50:29;;;;;;;4.60;2.65;;;;;;;32.55;39.22;99311.59;4799004;29;20210;-87
2023/09/03 06:52:55;;;;;;;4.18;2.33;;;;;;;32.81;37.63;99303.28;4808115;29;20555;-88
2023/09/03 06:55:22;;;;;;;5.35;2.25;;;;;;;32.85;37.05;99301.81;4792947;29;20187;-88
2023/09/03 06:57:48;;;;;;;4.20;2.67;;;;;;;32.85;38.19;99314.56;4807921;29;20205;-86
2023/09/03 07:00:14;;;;;;;4.75;2.45;;;;;;;33.06;36.93;99315.06;4788873;29;20257;-86
2023/09/03 07:02:39;;;;;;;5.50;2.30;;;;;;;33.26;36.84;99310.28;4790623;30;20196;-86
2023/09/03 07:05:06;;;;;;;5.53;2.60;;;;;;;33.65;36.64;99313.75;4790070;30;20617;-86
2023/09/03 07:07:31;;;;;;;4.88;2.42;;;;;;;33.54;36.49;99323.44;4789963;30;20180;-87
2023/09/03 07:09:57;;;;;;;5.88;2.03;;;;;;;33.35;35.55;99316.28;4774238;30;20558;-87
2023/09/03 07:12:24;;;;;;;7.10;2.40;;;;;;;33.23;36.24;99315.38;4789194;30;20208;-86
2023/09/03 07:14:51;;;;;;;3.50;2.05;;;;;;;33.17;36.98;99322.50;4790205;30;20187;-86
2023/09/03 07:17:18;;;;;;;4.32;2.30;;;;;;;33.25;36.17;99321.41;4803281;29;20213;-86
2023/09/03 07:19:45;;;;;;;4.63;2.00;;;;;;;33.41;35.93;99320.84;4808076;29;20259;-87
2023/09/03 07:22:11;;;;;;;4.60;2.00;;;;;;;33.37;35.25;99317.72;4807720;29;20190;-86
2023/09/03 07:24:38;;;;;;;5.07;1.95;;;;;;;33.42;35.37;99325.22;4791624;29;20220;-87
2023/09/03 07:27:04;;;;;;;4.50;2.33;;;;;;;33.52;34.59;99327.44;4807693;29;20194;-86
2023/09/03 07:29:29;;;;;;;6.30;2.50;;;;;;;33.54;35.70;99317.16;4806665;29;20210;-87
2023/09/03 07:31:55;;;;;;;4.00;2.22;;;;;;;33.60;33.99;99325.28;4807576;29;20622;-87
2023/09/03 07:34:20;;;;;;;4.47;2.00;;;;;;;33.56;33.34;99324.06;4791582;29;20225;-87
2023/09/03 07:36:46;;;;;;;4.28;2.67;;;;;;;33.50;35.10;99327.66;4807730;29;20182;-86
2023/09/03 07:39:11;;;;;;;3.53;1.98;;;;;;;33.35;34.73;99325.28;4806625;29;20178;-88
2023/09/03 07:41:38;;;;;;;4.18;2.25;;;;;;;33.46;33.84;99322.88;4806742;29;20205;-86
2023/09/03 07:44:05;;;;;;;3.45;2.05;;;;;;;33.55;33.74;99325.09;4807379;29;20234;-87
2023/09/03 07:46:32;;;;;;;3.50;1.65;;;;;;;33.60;32.95;99327.16;4808105;29;20193;-87
2023/09/03 07:48:59;;;;;;;4.85;2.25;;;;;;;33.58;34.21;99318.41;4807095;29;20206;-87
2023/09/03 07:51:25;;;;;;;4.53;2.22;;;;;;;33.72;32.72;99323.50;4789844;29;20357;-88
2023/09/03 07:53:51;;;;;;;3.25;1.67;;;;;;;33.61;31.55;99318.78;4789136;30;20306;-87
2023/09/03 07:56:18;;;;;;;4.15;2.03;;;;;;;33.45;32.78;99322.06;4803224;29;20627;-86
2023/09/03 07:58:44;;;;;;;3.95;1.85;;;;;;;33.51;33.43;99323.03;4789372;30;20198;-87
2023/09/03 08:01:11;;;;;;;5.75;1.40;;;;;;;33.83;32.56;99321.94;4791404;29;20653;-87
2023/09/03 08:03:39;;;;;;;5.53;1.60;;;;;;;33.95;31.30;99325.56;4807375;29;20178;-86
2023/09/03 08:06:05;;;;;;;3.17;1.58;;;;;;;34.00;31.23;99312.09;4806123;29;20232;-86
2023/09/03 08:08:31;;;;;;;3.15;1.70;;;;;;;34.17;31.07;99317.81;4805815;29;20199;-85
2023/09/03 08:10:58;;;;;;;4.25;1.88;;;;;;;34.19;31.83;99312.97;4794326;29;20205;-86
2023/09/03 08:13:24;;;;;;;3.42;1.70;;;;;;;34.37;31.31;99315.66;4789356;29;20513;-86
2023/09/03 08:15:50;;;;;;;6.47;1.88;;;;;;;34.53;33.49;99306.84;4790920;29;20194;-86
2023/09/03 08:18:17;;;;;;;5.10;2.00;;;;;;;34.71;31.40;99293.22;4806858;29;20649;-87
2023/09/03 08:20:50;;;;;;;3.20;1.50;;;;;;;34.61;30.23;99303.00;4805860;29;20213;-88
2023/09/03 08:23:21;;;;;;;3.05;1.40;;;;;;;34.63;31.67;99301.72;4806629;29;20598;-86
2023/09/03 08:25:46;;;;;;;3.20;1.58;;;;;;;34.72;31.45;99296.78;4806882;29;20595;-86
2023/09/03 08:28:13;;;;;;;5.05;1.77;;;;;;;34.90;31.45;99292.09;4806659;29;20205;-86
2023/09/03 08:30:39;;;;;;;3.58;1.63;;;;;;;35.15;30.42;99294.63;4790613;29;20214;-86
2023/09/03 08:33:05;;;;;;;2.65;1.48;;;;;;;35.12;29.38;99295.09;4806071;29;20202;-86
2023/09/03 08:35:31;;;;;;;2.80;1.33;;;;;;;35.29;27.46;99296.09;4790574;29;20653;-86
2023/09/03 08:37:58;;;;;;;2.67;1.42;;;;;;;35.36;27.53;99294.06;4806529;29;20243;-86
2023/09/03 08:40:25;;;;;;;3.30;1.70;;;;;;;35.42;28.13;99290.41;4805410;29;20214;-86
2023/09/03 08:42:53;;;;;;;2.83;1.58;;;;;;;35.53;28.37;99297.78;4806710;29;20255;-86
2023/09/03 08:45:19;;;;;;;2.55;1.33;;;;;;;35.54;29.52;99296.72;4806954;29;20194;-86
2023/09/03 08:47:45;;;;;;;3.15;1.60;;;;;;;35.54;29.35;99293.97;4803275;29;20234;-86
2023/09/03 08:50:19;;;;;;;2.88;1.45;;;;;;;35.62;27.38;99288.16;4787573;30;20219;-90
2023/09/03 08:52:44;;;;;;;3.58;1.08;;;;;;;35.58;27.77;99283.44;4793403;29;20273;-86
2023/09/03 08:55:12;;;;;;;4.60;1.63;;;;;;;35.60;28.78;99282.13;4805868;29;20273;-86
2023/09/03 08:57:38;;;;;;;3.97;1.40;;;;;;;35.77;27.61;99287.69;4804510;29;20214;-86
2023/09/03 09:00:10;;;;;;;3.25;1.55;;;;;;;35.91;28.89;99271.88;4789490;29;20277;-86
2023/09/03 09:02:38;;;;;;;4.82;2.25;;;;;;;36.06;27.59;99277.72;4798402;29;20632;-86
2023/09/03 09:05:07;;;;;;;3.70;1.50;;;;;;;36.20;27.52;99270.88;4804779;29;20198;-86
2023/09/03 09:07:33;;;;;;;2.83;1.02;;;;;;;36.32;26.85;99263.50;4791572;29;20207;-86
2023/09/03 09:10:06;;;;;;;3.33;1.42;;;;;;;36.10;26.75;99270.69;4805930;29;20266;-85
2023/09/03 09:12:53;;;;;;;2.95;1.73;;;;;;;36.06;28.43;99266.78;4787944;30;20175;-86
2023/09/03 09:15:20;;;;;;;6.32;1.88;;;;;;;35.80;28.23;99254.47;4797668;29;20273;-86
2023/09/03 09:17:48;;;;;;;3.97;1.40;;;;;;;35.94;27.98;99255.03;4805408;29;20205;-86
2023/09/03 09:20:16;;;;;;;2.95;1.40;;;;;;;36.12;27.05;99260.34;4805253;29;20648;-86
2023/09/03 09:22:45;;;;;;;3.03;1.52;;;;;;;36.10;27.14;99257.88;4789595;29;20255;-86
2023/09/03 09:25:23;;;;;;;3.05;1.30;;;;;;;35.90;26.91;99256.59;4804380;29;20197;-85
2023/09/03 09:27:51;;;;;;;5.20;2.17;;;;;;;35.85;27.10;99256.50;4801847;29;20544;-86
2023/09/03 09:30:22;;;;;;;2.40;1.45;;;;;;;35.79;27.22;99258.28;4818645;29;20732;-85
2023/09/03 09:33:01;;;;;;;3.17;1.48;;;;;;;35.62;27.73;99258.16;4812189;29;20201;-86
2023/09/03 09:35:26;;;;;;;2.55;1.25;;;;;;;35.47;28.48;99249.63;4804874;29;20170;-86
2023/09/03 09:37:52;;;;;;;3.28;1.67;;;;;;;35.41;29.03;99245.09;4805207;29;20182;-86
2023/09/03 09:40:32;;;;;;;4.40;1.63;;;;;;;35.44;27.86;99235.63;4789728;29;20190;-88
2023/09/03 09:43:01;;;;;;;3.85;1.70;;;;;;;35.36;28.14;99236.81;4799229;29;20190;-87
2023/09/03 09:45:28;;;;;;;6.40;1.55;;;;;;;35.42;27.48;99240.50;4790282;29;20205;-86
2023/09/03 09:48:30;;;;;;;2.58;1.50;;;;;;;35.51;28.80;99233.63;4809489;29;20269;-87
2023/09/03 09:50:57;;;;;;;3.53;1.52;;;;;;;35.64;28.22;99227.94;4753985;29;20210;-86
2023/09/03 09:53:27;;;;;;;2.95;1.63;;;;;;;35.45;28.45;99224.50;4809632;29;20645;-86
2023/09/03 09:56:09;;;;;;;4.88;1.73;;;;;;;35.52;27.54;99227.09;4792017;29;20202;-86
2023/09/03 09:58:38;;;;;;;5.63;1.17;;;;;;;35.73;26.55;99221.88;4784902;29;20570;-86
2023/09/03 10:01:09;;;;;;;3.08;1.70;;;;;;;35.55;26.77;99208.38;4787046;29;20230;-86
2023/09/03 10:03:46;;;;;;;2.60;1.05;;;;;;;35.70;27.72;99205.16;4808320;29;20689;-87
2023/09/03 10:06:23;;;;;;;3.65;1.85;;;;;;;35.85;26.13;99202.72;4785755;29;20201;-87
2023/09/03 10:08:54;;;;;;;2.53;1.33;;;;;;;36.10;26.77;99199.72;4795755;29;20219;-87
2023/09/03 10:11:20;;;;;;;5.68;1.88;;;;;;;35.89;25.46;99198.47;4806361;29;20236;-86
2023/09/03 10:13:48;;;;;;;3.25;1.70;;;;;;;35.70;25.88;99203.25;4807964;29;20194;-86
2023/09/03 10:16:17;;;;;;;2.97;1.40;;;;;;;35.98;26.10;99201.63;4808468;29;20194;-86
2023/09/03 10:18:46;;;;;;;3.63;1.40;;;;;;;36.20;24.96;99191.72;4808773;29;20652;-86
2023/09/03 10:21:19;;;;;;;3.42;1.65;;;;;;;36.45;24.65;99194.94;4776237;29;20186;-86
2023/09/03 10:23:57;;;;;;;3.05;1.13;;;;;;;36.69;24.97;99188.25;4788592;29;20214;-86
2023/09/03 10:26:32;;;;;;;2.30;1.30;;;;;;;36.65;25.09;99187.09;4788550;29;20687;-85
2023/09/03 10:29:03;;;;;;;2.97;1.60;;;;;;;36.76;24.94;99180.75;4790995;29;20263;-85
2023/09/03 10:31:31;;;;;;;2.22;1.45;;;;;;;36.93;23.31;99176.09;4807254;29;20174;-86
2023/09/03 10:33:58;;;;;;;2.88;1.55;;;;;;;36.83;23.95;99172.38;4790977;29;20601;-85
2023/09/03 10:36:25;;;;;;;2.58;1.23;;;;;;;36.97;23.49;99168.25;4791377;29;20265;-85
2023/09/03 10:38:51;;;;;;;2.80;1.35;;;;;;;37.01;23.96;99179.50;4785276;29;20224;-85
2023/09/03 10:41:21;;;;;;;5.25;1.25;;;;;;;36.78;23.15;99170.38;4787207;30;20183;-85
2023/09/03 10:43:49;;;;;;;2.42;1.20;;;;;;;36.83;24.02;99170.47;4800829;29;20179;-85
2023/09/03 10:46:16;;;;;;;2.97;1.67;;;;;;;37.02;21.83;99168.34;4806110;29;20243;-85
2023/09/03 10:48:54;;;;;;;2.20;1.30;;;;;;;37.08;23.82;99163.78;4806059;29;20496;-85
2023/09/03 10:51:32;;;;;;;2.55;1.30;;;;;;;37.14;22.97;99154.53;4806448;29;20266;-86
2023/09/03 10:54:23;;;;;;;2.45;1.08;;;;;;;37.32;22.57;99148.78;4805600;29;20637;-89
2023/09/03 10:57:13;;;;;;;3.28;1.40;;;;;;;37.48;22.30;99142.47;4791687;29;20185;-86
2023/09/03 10:59:57;;;;;;;2.28;1.27;;;;;;;37.42;23.04;99143.50;4808003;29;20675;-85
2023/09/03 11:02:25;;;;;;;5.32;1.20;;;;;;;37.19;23.16;99133.56;4807485;29;20234;-85
2023/09/03 11:05:12;;;;;;;4.45;1.30;;;;;;;37.39;22.66;99133.03;4791863;29;20230;-85
2023/09/03 11:07:38;;;;;;;2.42;1.25;;;;;;;37.60;22.22;99128.66;4788844;29;20197;-85
2023/09/03 11:10:28;;;;;;;2.33;1.27;;;;;;;37.68;22.43;99128.22;4791253;29;20206;-85
2023/09/03 11:12:55;;;;;;;1.80;1.15;;;;;;;37.88;22.58;99123.84;4791055;29;20182;-86
2023/09/03 11:15:22;;;;;;;3.80;1.52;;;;;;;37.77;23.63;99124.75;4806759;29;20178;-85
2023/09/03 11:17:55;;;;;;;2.20;1.20;;;;;;;37.81;22.01;99122.34;4807190;29;20179;-85
2023/09/03 11:20:36;;;;;;;3.17;1.58;;;;;;;37.17;23.12;99123.97;4805869;29;20263;-85
2023/09/03 11:23:03;;;;;;;4.90;1.42;;;;;;;37.31;23.61;99122.53;4805861;29;20564;-86
2023/09/03 11:25:37;;;;;;;2.80;1.25;;;;;;;37.15;23.40;99107.00;4791719;29;20187;-85
2023/09/03 11:28:08;;;;;;;2.53;1.30;;;;;;;36.73;23.34;99099.28;4792729;29;20220;-84
2023/09/03 11:30:35;;;;;;;2.83;1.40;;;;;;;36.73;24.18;99096.53;4788613;30;20214;-88
2023/09/03 11:33:01;;;;;;;3.38;1.40;;;;;;;36.97;23.20;99102.66;4803928;29;20225;-86
2023/09/03 11:35:28;;;;;;;2.75;1.35;;;;;;;36.92;23.22;99100.63;4788810;30;20278;-86
2023/09/03 11:37:56;;;;;;;2.33;1.15;;;;;;;37.03;23.10;99101.63;4789516;30;20187;-86
2023/09/03 11:40:27;;;;;;;3.90;1.30;;;;;;;36.88;23.90;99104.97;4798942;29;20191;-85
2023/09/03 11:42:54;;;;;;;2.28;1.20;;;;;;;36.98;22.97;99092.56;4807387;29;20182;-85